Time;durP1;ratioP1;P1;durP2;ratioP2;P2;SDS_P1;SDS_P2;PMS_P1;PMS_P2;Temp;Humidity;BMP_temperature;BMP_pressure;BME280_temperature;BME280_humidity;BME280_pressure;Samples;Min_cycle;Max_cycle;Signal;HPM_P1;HPM_P2
2022/05/10 06:19:21;;;;;;;;;;;16.50;47.10;;;;;;5119329;27;20632;-85
2022/05/10 06:21:46;;;;;;;;;;;17.20;47.60;;;;;;5072628;28;20011;-81
2022/05/10 06:24:12;;;;;;;;;;;17.90;46.30;;;;;;5073780;28;19995;-84
2022/05/10 06:26:38;;;;;;;6.40;0.70;;;18.60;44.60;;;;;;5072858;28;19923;-84
2022/05/10 06:29:04;;;;;;;4.18;0.60;;;19.00;43.00;;;;;;5061039;28;20036;-83
2022/05/10 06:31:30;;;;;;;6.82;0.57;;;19.40;42.50;;;;;;5071297;28;20074;-84
2022/05/10 06:33:56;;;;;;;3.72;0.75;;;19.70;42.40;;;;;;5073425;28;20028;-84
2022/05/10 06:36:22;;;;;;;2.92;0.70;;;19.90;41.40;;;;;;5070427;28;20043;-84
2022/05/10 06:38:48;;;;;;;5.35;0.50;;;20.00;40.80;;;;;;5075885;28;20032;-85
2022/05/10 06:41:14;;;;;;;3.47;0.75;;;20.10;39.80;;;;;;5070590;28;20043;-86
2022/05/10 06:43:40;;;;;;;3.40;0.50;;;20.10;39.70;;;;;;5055353;28;20041;-85
2022/05/10 06:46:21;;;;;;;3.60;0.50;;;20.10;38.20;;;;;;5044567;28;20473;-88
2022/05/10 06:48:47;;;;;;;3.42;0.60;;;19.90;37.20;;;;;;5066479;28;20024;-87
2022/05/10 06:51:16;;;;;;;2.08;0.63;;;19.90;37.00;;;;;;5074625;28;20037;-88
2022/05/10 06:53:42;;;;;;;6.28;0.98;;;19.90;36.80;;;;;;5073820;28;20048;-87
2022/05/10 06:56:08;;;;;;;4.85;1.02;;;19.80;37.00;;;;;;5072061;28;20037;-90
2022/05/10 06:58:35;;;;;;;3.10;1.20;;;19.80;38.10;;;;;;5071889;28;20044;-89
2022/05/10 07:01:02;;;;;;;3.95;0.80;;;19.80;39.40;;;;;;5088275;28;20040;-87
2022/05/10 07:03:32;;;;;;;6.38;0.90;;;19.80;38.70;;;;;;5074394;28;20123;-82
2022/05/10 07:06:00;;;;;;;5.70;0.80;;;19.80;38.60;;;;;;5053131;28;20047;-86
2022/05/10 07:08:26;;;;;;;2.90;1.13;;;19.70;38.70;;;;;;5053293;28;20036;-92
2022/05/10 07:10:53;;;;;;;4.65;1.20;;;19.70;40.30;;;;;;5068853;28;20067;-86
2022/05/10 07:13:22;;;;;;;4.60;0.85;;;19.80;40.70;;;;;;5086323;28;20404;-86
2022/05/10 07:15:49;;;;;;;3.67;0.90;;;19.70;40.70;;;;;;5037039;28;20028;-83
2022/05/10 07:18:17;;;;;;;3.97;0.95;;;19.80;41.30;;;;;;5069420;28;20418;-81
2022/05/10 07:20:43;;;;;;;3.80;0.52;;;19.80;40.00;;;;;;5070768;28;20028;-77
2022/05/10 07:23:10;;;;;;;3.15;0.60;;;19.70;37.70;;;;;;5070036;28;20037;-77
2022/05/10 07:25:37;;;;;;;8.93;0.88;;;19.60;37.40;;;;;;5071367;28;20054;-78
2022/05/10 07:28:05;;;;;;;3.65;0.82;;;19.50;37.70;;;;;;5070866;28;21234;-77
2022/05/10 07:30:31;;;;;;;5.05;0.63;;;19.50;37.10;;;;;;5058838;28;20368;-79
2022/05/10 07:33:01;;;;;;;1.45;0.30;;;19.40;37.10;;;;;;5055350;28;20033;-78
2022/05/10 07:38:22;;;;;;;1.80;0.43;;;19.30;35.60;;;;;;5048866;28;20047;-81
2022/05/10 07:40:54;;;;;;;7.43;0.77;;;19.20;35.20;;;;;;5030522;28;20120;-82
2022/05/10 07:43:22;;;;;;;9.70;0.80;;;19.10;35.00;;;;;;5037340;28;20090;-76
2022/05/10 07:45:54;;;;;;;1.95;0.60;;;19.00;34.50;;;;;;5054053;28;20384;-78
2022/05/10 07:48:21;;;;;;;3.30;0.80;;;18.90;35.30;;;;;;5054119;28;20071;-77
2022/05/10 07:50:50;;;;;;;3.80;0.60;;;18.80;35.60;;;;;;5055071;28;20476;-78
2022/05/10 07:53:16;;;;;;;4.57;0.82;;;18.70;35.00;;;;;;5054410;28;20071;-77
2022/05/10 07:55:41;;;;;;;1.85;0.82;;;18.60;34.10;;;;;;5054562;28;20100;-80
2022/05/10 07:58:08;;;;;;;5.28;0.50;;;18.50;34.20;;;;;;5055781;28;20091;-80
2022/05/10 08:00:36;;;;;;;2.08;0.60;;;18.40;34.80;;;;;;5038896;28;20072;-79
2022/05/10 08:03:10;;;;;;;1.88;0.70;;;18.40;37.40;;;;;;5055288;28;20041;-80
2022/05/10 08:05:36;;;;;;;2.50;0.40;;;18.40;37.80;;;;;;5055914;28;20028;-86
2022/05/10 08:08:02;;;;;;;1.25;0.65;;;18.40;38.00;;;;;;5055264;28;20408;-85
2022/05/10 08:10:29;;;;;;;6.30;1.10;;;18.50;37.70;;;;;;5055177;28;20041;-86
2022/05/10 08:12:55;;;;;;;7.18;1.30;;;18.50;37.40;;;;;;5042391;28;20028;-86
2022/05/10 08:15:21;;;;;;;5.47;0.77;;;18.50;37.70;;;;;;5056589;28;20120;-85
2022/05/10 08:17:47;;;;;;;7.00;1.27;;;18.50;36.70;;;;;;5040577;28;20113;-84
2022/05/10 08:20:15;;;;;;;2.80;1.42;;;18.50;36.80;;;;;;5029606;28;20542;-83
2022/05/10 08:22:43;;;;;;;4.70;1.38;;;18.50;36.40;;;;;;5049994;28;20495;-81
2022/05/10 08:25:14;;;;;;;10.98;3.55;;;18.40;36.40;;;;;;5018370;28;20039;-80
2022/05/10 08:27:40;;;;;;;13.90;3.50;;;18.40;37.60;;;;;;5035110;28;20076;-80
2022/05/10 08:30:07;;;;;;;8.70;2.60;;;18.40;38.80;;;;;;5023289;28;20393;-78
2022/05/10 08:32:33;;;;;;;4.30;1.10;;;18.40;39.00;;;;;;5033710;28;20045;-78
2022/05/10 08:34:59;;;;;;;4.78;1.73;;;18.40;36.80;;;;;;5033995;28;20420;-77
2022/05/10 08:37:25;;;;;;;4.72;1.88;;;18.30;36.20;;;;;;5037931;28;20055;-78
2022/05/10 08:39:51;;;;;;;6.47;2.60;;;18.20;36.80;;;;;;5035258;28;20030;-78
2022/05/10 08:42:28;;;;;;;5.32;2.50;;;18.20;38.40;;;;;;5033337;28;20029;-78
2022/05/10 08:45:06;;;;;;;11.10;3.00;;;18.30;39.50;;;;;;5033863;28;20519;-80
2022/05/10 08:47:33;;;;;;;13.13;2.20;;;18.30;40.20;;;;;;5035887;28;20492;-82
2022/05/10 08:50:01;;;;;;;8.40;1.60;;;18.40;40.80;;;;;;5033682;28;20036;-79
2022/05/10 08:52:32;;;;;;;5.35;1.70;;;18.40;39.50;;;;;;5034931;28;20052;-82
2022/05/10 08:54:59;;;;;;;14.38;6.22;;;18.40;40.00;;;;;;5035669;28;20029;-78
2022/05/10 08:57:29;;;;;;;10.82;5.78;;;18.40;40.20;;;;;;5033191;28;20471;-81
2022/05/10 09:00:29;;;;;;;10.73;3.42;;;18.40;40.30;;;;;;5033733;28;20123;-82
2022/05/10 09:03:01;;;;;;;9.75;2.90;;;18.30;38.00;;;;;;5034145;28;20044;-91
2022/05/10 09:05:40;;;;;;;6.88;1.77;;;18.30;39.50;;;;;;5008753;28;20431;-82
2022/05/10 09:08:09;;;;;;;3.83;1.20;;;18.30;39.20;;;;;;5026621;28;20056;-83
2022/05/10 09:10:57;;;;;;;9.20;1.52;;;18.30;37.60;;;;;;5034540;28;20039;-79
2022/05/10 09:13:24;;;;;;;4.18;1.13;;;18.20;37.80;;;;;;5034362;28;20036;-80
2022/05/10 09:15:55;;;;;;;1.70;1.00;;;18.20;38.40;;;;;;5023262;28;20029;-79
2022/05/10 09:18:28;;;;;;;3.50;0.93;;;18.20;38.10;;;;;;5050423;28;20053;-82
2022/05/10 09:21:18;;;;;;;3.83;0.98;;;18.10;36.90;;;;;;5034724;28;20026;-80
2022/05/10 09:24:14;;;;;;;1.95;0.88;;;18.10;36.90;;;;;;5034864;28;20040;-79
2022/05/10 09:26:42;;;;;;;4.15;1.05;;;18.20;36.20;;;;;;5013533;28;20038;-78
2022/05/10 09:29:17;;;;;;;1.42;0.85;;;18.10;35.60;;;;;;4995729;28;20591;-81
2022/05/10 09:34:46;;;;;;;2.40;0.82;;;17.90;34.70;;;;;;4996501;28;20042;-80
2022/05/10 09:37:15;;;;;;;3.50;0.93;;;17.80;35.30;;;;;;5014543;28;20046;-81
2022/05/10 09:39:56;;;;;;;2.63;0.95;;;17.80;36.00;;;;;;5012414;28;20038;-81
2022/05/10 09:42:34;;;;;;;5.00;0.82;;;17.80;36.20;;;;;;4980010;28;20076;-80
2022/05/10 09:45:11;;;;;;;5.57;0.77;;;17.80;35.80;;;;;;5012436;28;20393;-79
2022/05/10 09:47:38;;;;;;;3.75;0.90;;;17.80;36.10;;;;;;5012372;28;20038;-78
2022/05/10 09:50:19;;;;;;;5.38;0.90;;;17.80;36.70;;;;;;5011039;28;20120;-78
2022/05/10 09:52:47;;;;;;;4.15;0.77;;;17.80;37.30;;;;;;5011775;28;20105;-81
2022/05/10 09:55:28;;;;;;;4.57;0.85;;;17.80;37.40;;;;;;4995936;28;20065;-81
2022/05/10 09:57:57;;;;;;;1.83;0.70;;;17.80;37.50;;;;;;5010513;28;20041;-79
2022/05/10 10:00:44;;;;;;;2.97;0.50;;;17.80;38.00;;;;;;5011811;28;22105;-78
2022/05/10 10:03:26;;;;;;;4.97;0.80;;;17.90;36.90;;;;;;5014289;28;20040;-78
2022/05/10 10:05:54;;;;;;;7.10;0.60;;;17.80;36.30;;;;;;5033974;28;20503;-78
2022/05/10 10:08:56;;;;;;;5.13;0.70;;;17.70;35.80;;;;;;5034313;28;20041;-78
2022/05/10 10:11:22;;;;;;;2.20;0.80;;;17.60;36.50;;;;;;5031855;28;20040;-77
2022/05/10 10:13:52;;;;;;;2.15;0.60;;;17.60;37.10;;;;;;5035241;28;20032;-79
2022/05/10 10:16:25;;;;;;;1.85;0.47;;;17.50;37.20;;;;;;5017652;28;20036;-79
2022/05/10 10:18:55;;;;;;;2.72;0.70;;;17.40;36.50;;;;;;5039007;28;20080;-77
2022/05/10 10:21:32;;;;;;;3.67;0.60;;;17.40;36.70;;;;;;5033262;28;20044;-77
2022/05/10 10:23:59;;;;;;;4.18;0.70;;;17.40;36.80;;;;;;5031238;28;20040;-78
2022/05/10 10:26:44;;;;;;;5.68;0.70;;;17.30;36.90;;;;;;5032591;28;20064;-77
2022/05/10 10:29:53;;;;;;;3.97;0.40;;;17.30;37.00;;;;;;5032273;28;20091;-78
2022/05/10 10:32:29;;;;;;;1.30;0.63;;;17.20;36.50;;;;;;5030733;28;20563;-77
2022/05/10 10:34:59;;;;;;;;;;;17.10;36.20;;;;;;5034095;28;20033;-78
2022/05/10 10:37:43;;;;;;;1.33;0.60;;;17.10;36.20;;;;;;5034334;28;19916;-77
2022/05/10 10:40:24;;;;;;;4.22;0.50;;;17.00;36.80;;;;;;5034382;28;20323;-79
2022/05/10 10:43:09;;;;;;;6.35;0.70;;;16.90;36.50;;;;;;5034978;28;20527;-78
2022/05/10 10:45:48;;;;;;;3.03;0.50;;;17.00;36.80;;;;;;5031432;28;20041;-76
2022/05/10 10:48:30;;;;;;;1.65;0.50;;;16.90;37.00;;;;;;5050063;28;20067;-77
2022/05/10 10:50:57;;;;;;;2.80;0.60;;;16.90;36.40;;;;;;5052293;28;20032;-77
2022/05/10 10:53:26;;;;;;;1.13;0.68;;;16.80;36.20;;;;;;5053107;28;20040;-76
2022/05/10 10:55:55;;;;;;;4.57;0.70;;;16.80;36.70;;;;;;5052972;28;20293;-77
2022/05/10 10:58:45;;;;;;;5.35;0.70;;;16.90;36.70;;;;;;5052723;28;20045;-76
2022/05/10 11:01:51;;;;;;;5.70;0.70;;;16.80;36.90;;;;;;5052868;28;20052;-77
2022/05/10 11:04:49;;;;;;;3.70;0.40;;;16.80;36.40;;;;;;5052430;28;20076;-77
2022/05/10 11:07:21;;;;;;;1.80;0.70;;;16.80;35.70;;;;;;5060063;28;20037;-77
2022/05/10 11:09:47;;;;;;;1.63;0.70;;;16.70;35.70;;;;;;5073681;28;20119;-78
2022/05/10 11:12:27;;;;;;;2.63;0.73;;;16.60;35.60;;;;;;5056364;28;20133;-77
2022/05/10 11:15:02;;;;;;;4.40;0.65;;;16.50;35.90;;;;;;5056555;28;20044;-77
2022/05/10 11:17:28;;;;;;;1.35;0.30;;;16.50;36.50;;;;;;5056934;28;20517;-77
2022/05/10 11:20:32;;;;;;;13.55;1.02;;;16.30;37.10;;;;;;5055466;28;20122;-76
2022/05/10 11:23:06;;;;;;;1.40;0.50;;;16.20;37.90;;;;;;5056078;28;20152;-77
2022/05/10 11:26:29;;;;;;;2.90;0.50;;;16.00;38.90;;;;;;5057186;28;20535;-76
2022/05/10 11:29:07;;;;;;;1.95;0.50;;;15.90;40.10;;;;;;4998176;28;20521;-76
2022/05/10 11:32:01;;;;;;;5.53;0.90;;;15.80;41.40;;;;;;4997961;28;20419;-76
2022/05/10 11:34:54;;;;;;;2.28;0.57;;;15.70;42.90;;;;;;4978443;28;20045;-75
2022/05/10 11:37:35;;;;;;;1.23;0.50;;;15.60;43.50;;;;;;5015399;28;20079;-76
2022/05/10 11:40:09;;;;;;;1.52;0.43;;;15.60;44.40;;;;;;5014405;28;20037;-76
2022/05/10 11:42:44;;;;;;;1.58;0.60;;;15.70;43.90;;;;;;5013766;28;20433;-77
2022/05/10 11:45:32;;;;;;;3.50;0.93;;;15.70;44.30;;;;;;4998463;28;20038;-77
2022/05/10 11:48:19;;;;;;;2.72;0.90;;;15.70;44.20;;;;;;5015265;28;20037;-77
2022/05/10 11:53:55;;;;;;;1.85;0.40;;;15.60;43.50;;;;;;4999017;28;20472;-76
2022/05/10 11:56:21;;;;;;;1.15;0.40;;;15.60;44.20;;;;;;4990266;28;20177;-77
2022/05/10 11:58:49;;;;;;;2.35;0.70;;;15.60;45.20;;;;;;5019943;28;20046;-78
2022/05/10 12:01:43;;;;;;;1.80;0.50;;;15.60;45.50;;;;;;5058272;28;20589;-76
2022/05/10 12:04:28;;;;;;;7.25;0.70;;;15.70;45.70;;;;;;5057572;28;20041;-76
2022/05/10 12:06:55;;;;;;;1.30;0.75;;;15.70;46.30;;;;;;5055989;28;20041;-77
2022/05/10 12:09:52;;;;;;;1.95;0.88;;;15.80;46.40;;;;;;5041523;28;20052;-74
2022/05/10 12:12:41;;;;;;;2.15;0.45;;;15.90;46.30;;;;;;5022414;28;20041;-76
2022/05/10 12:21:20;;;;;;;1.05;0.57;;;16.20;46.50;;;;;;5055529;28;20025;-76
2022/05/10 12:24:03;;;;;;;1.30;0.75;;;16.30;46.30;;;;;;5040129;28;20025;-76
2022/05/10 12:26:55;;;;;;;2.55;0.98;;;16.40;46.20;;;;;;5042301;28;20034;-75
2022/05/10 12:29:40;;;;;;;4.68;0.95;;;16.50;46.00;;;;;;5039393;28;20472;-76
2022/05/10 12:32:18;;;;;;;4.43;0.80;;;16.50;45.70;;;;;;5039892;28;20455;-76
2022/05/10 12:34:44;;;;;;;1.48;0.60;;;16.60;45.60;;;;;;5043377;28;20438;-76
2022/05/10 12:37:24;;;;;;;2.65;0.85;;;16.60;45.60;;;;;;5038754;28;20033;-77
2022/05/10 12:40:11;;;;;;;3.45;0.77;;;16.70;45.60;;;;;;5025168;28;20045;-76
2022/05/10 12:42:55;;;;;;;5.65;1.23;;;16.70;45.70;;;;;;5055541;28;20105;-79
2022/05/10 12:45:27;;;;;;;3.15;1.02;;;16.80;45.60;;;;;;5054221;28;20067;-76
2022/05/10 12:48:05;;;;;;;7.45;1.10;;;16.80;45.50;;;;;;5055641;28;20056;-78
2022/05/10 12:50:46;;;;;;;3.80;0.90;;;16.90;45.30;;;;;;5056522;28;20033;-77
2022/05/10 12:53:41;;;;;;;3.80;1.13;;;16.90;45.00;;;;;;5052578;28;20679;-77
2022/05/10 12:56:22;;;;;;;5.15;1.30;;;17.00;44.90;;;;;;5054256;28;20091;-79
2022/05/10 12:58:53;;;;;;;3.20;0.93;;;17.00;44.80;;;;;;5055559;28;20102;-77
2022/05/10 13:01:24;;;;;;;4.22;1.25;;;17.00;44.40;;;;;;5056995;28;20041;-75
2022/05/10 13:04:06;;;;;;;5.50;1.00;;;17.10;44.20;;;;;;5054255;28;20021;-78
2022/05/10 13:06:48;;;;;;;5.43;1.10;;;17.10;43.90;;;;;;5054224;28;20090;-80
2022/05/10 13:09:31;;;;;;;3.30;1.15;;;17.20;44.00;;;;;;5053803;28;20068;-80
2022/05/10 13:12:11;;;;;;;2.92;1.33;;;17.20;43.90;;;;;;5055187;28;20396;-76
2022/05/10 13:14:49;;;;;;;5.43;1.10;;;17.20;43.60;;;;;;5055285;28;20029;-77
2022/05/10 13:17:33;;;;;;;5.28;1.20;;;17.20;43.20;;;;;;5055578;28;20049;-78
2022/05/10 13:20:06;;;;;;;5.82;1.52;;;17.20;42.50;;;;;;5054742;28;20094;-78
2022/05/10 13:22:32;;;;;;;5.47;1.30;;;17.20;42.40;;;;;;5055398;28;20111;-78
2022/05/10 13:25:00;;;;;;;11.60;1.75;;;17.20;41.90;;;;;;5053878;28;20082;-78
2022/05/10 13:27:28;;;;;;;2.90;0.75;;;17.30;41.30;;;;;;5052369;28;20403;-78
2022/05/10 13:30:09;;;;;;;2.25;0.70;;;17.30;40.90;;;;;;5054742;28;20029;-77
2022/05/10 13:32:38;;;;;;;4.28;0.90;;;17.30;40.60;;;;;;5053827;28;20052;-78
2022/05/10 13:35:24;;;;;;;5.20;0.55;;;17.30;40.20;;;;;;5053056;28;20087;-75
2022/05/10 13:38:02;;;;;;;4.60;1.00;;;17.30;40.20;;;;;;5055730;28;20044;-81
2022/05/10 13:40:47;;;;;;;5.50;0.60;;;17.30;39.70;;;;;;5055549;28;20047;-84
2022/05/10 13:43:20;;;;;;;1.75;0.77;;;17.30;40.60;;;;;;5054856;28;20033;-81
2022/05/10 13:45:57;;;;;;;5.35;0.95;;;17.30;41.00;;;;;;5055547;28;20483;-81
2022/05/10 13:48:37;;;;;;;19.10;1.95;;;17.30;39.80;;;;;;5057845;28;20041;-77
2022/05/10 13:51:53;;;;;;;5.55;0.95;;;17.30;39.50;;;;;;5055531;28;20042;-86
2022/05/10 13:54:30;;;;;;;4.07;0.90;;;17.30;43.00;;;;;;5006349;28;20587;-84
2022/05/10 13:57:15;;;;;;;5.18;0.80;;;17.40;44.30;;;;;;5057545;28;20111;-84
2022/05/10 13:59:43;;;;;;;7.82;0.90;;;17.50;44.50;;;;;;5087586;28;20044;-87
2022/05/10 14:02:11;;;;;;;5.90;0.90;;;17.60;44.20;;;;;;5040524;28;20045;-88
2022/05/10 14:04:46;;;;;;;3.83;0.55;;;17.70;43.40;;;;;;5051362;28;21038;-84
2022/05/10 14:07:30;;;;;;;6.53;0.77;;;17.80;42.10;;;;;;5080773;28;20055;-85
2022/05/10 14:10:00;;;;;;;5.68;0.70;;;17.90;41.60;;;;;;5024518;28;20101;-89
2022/05/10 14:12:42;;;;;;;3.75;0.63;;;17.90;41.40;;;;;;5038884;28;20505;-89
2022/05/10 14:15:31;;;;;;;4.55;0.70;;;17.90;41.50;;;;;;5027649;28;20041;-91
2022/05/10 14:18:13;;;;;;;3.75;0.70;;;18.00;42.50;;;;;;5039521;28;20416;-89
2022/05/10 14:20:44;;;;;;;2.75;0.60;;;18.10;42.80;;;;;;5036205;28;20389;-88
2022/05/10 14:23:14;;;;;;;6.10;0.90;;;18.10;42.30;;;;;;5033924;28;20081;-93
2022/05/10 14:25:57;;;;;;;2.17;0.82;;;18.20;41.30;;;;;;5034941;28;20033;-87
2022/05/10 14:28:38;;;;;;;9.50;0.65;;;18.20;41.50;;;;;;5037512;28;20036;-90
2022/05/10 14:31:15;;;;;;;3.97;0.85;;;18.30;42.20;;;;;;5037035;28;20056;-88
2022/05/10 14:33:44;;;;;;;1.17;0.80;;;18.30;42.60;;;;;;5023641;28;20041;-82
2022/05/10 14:36:27;;;;;;;3.08;0.65;;;18.30;42.20;;;;;;5010461;28;20041;-82
2022/05/10 14:38:53;;;;;;;2.38;0.73;;;18.30;41.60;;;;;;5030093;28;20041;-82
2022/05/10 14:41:41;;;;;;;6.47;1.10;;;18.30;41.60;;;;;;5039597;28;20052;-82
2022/05/10 14:44:21;;;;;;;2.95;0.68;;;18.40;40.80;;;;;;5043537;28;20036;-82
2022/05/10 14:46:55;;;;;;;4.28;1.13;;;18.40;40.90;;;;;;5038132;28;20076;-82
2022/05/10 14:49:42;;;;;;;4.82;1.15;;;18.50;39.00;;;;;;5020839;28;20529;-81
2022/05/10 14:52:27;;;;;;;4.55;0.90;;;18.50;38.40;;;;;;5029371;28;20429;-82
2022/05/10 14:54:56;;;;;;;2.60;1.10;;;18.50;38.20;;;;;;5041568;28;20041;-85
2022/05/10 14:57:33;;;;;;;4.35;1.30;;;18.50;38.30;;;;;;5011205;28;20051;-83
2022/05/10 15:00:18;;;;;;;3.15;1.33;;;18.50;38.10;;;;;;5023680;28;20078;-81
2022/05/10 15:02:45;;;;;;;4.93;1.55;;;18.40;37.90;;;;;;5021079;28;20434;-88
2022/05/10 15:05:19;;;;;;;4.80;1.10;;;18.40;37.60;;;;;;5039100;28;20143;-84
2022/05/10 15:07:45;;;;;;;3.47;1.33;;;18.40;38.10;;;;;;5037991;28;20040;-83
2022/05/10 15:10:12;;;;;;;3.00;1.38;;;18.40;38.30;;;;;;5046727;28;20052;-83
2022/05/10 15:15:22;;;;;;;2.05;1.10;;;18.30;38.90;;;;;;5042470;28;20144;-81
2022/05/10 15:20:34;;;;;;;3.35;1.13;;;18.30;38.30;;;;;;5038225;28;20040;-82
2022/05/10 15:23:00;;;;;;;1.08;0.80;;;18.30;38.20;;;;;;5038478;28;20037;-79
2022/05/10 15:25:25;;;;;;;2.10;1.02;;;18.30;38.10;;;;;;5038007;28;20034;-80
2022/05/10 15:27:51;;;;;;;2.88;0.82;;;18.30;37.90;;;;;;5036394;28;20396;-81
2022/05/10 15:30:19;;;;;;;1.48;1.00;;;18.30;37.80;;;;;;5037402;28;20076;-81
2022/05/10 15:32:45;;;;;;;3.10;0.90;;;18.30;37.60;;;;;;5037017;28;20600;-81
2022/05/10 15:35:11;;;;;;;0.75;0.63;;;18.20;37.30;;;;;;5037798;28;20029;-80
2022/05/10 15:37:38;;;;;;;1.67;0.80;;;18.20;37.30;;;;;;5040254;28;20046;-81
2022/05/10 15:40:05;;;;;;;3.60;1.00;;;18.20;37.50;;;;;;5043376;28;20037;-85
2022/05/10 15:42:33;;;;;;;1.77;0.82;;;18.20;37.80;;;;;;5045428;28;20041;-84
2022/05/10 15:45:01;;;;;;;3.53;0.70;;;18.10;37.70;;;;;;5043054;28;20034;-84
2022/05/10 15:47:30;;;;;;;0.90;0.70;;;18.20;37.80;;;;;;5005539;28;20095;-84
2022/05/10 15:49:57;;;;;;;1.33;0.80;;;18.10;37.50;;;;;;5035413;28;20037;-82
2022/05/10 15:52:24;;;;;;;1.27;0.60;;;18.10;37.30;;;;;;5023597;28;20039;-82
2022/05/10 15:54:50;;;;;;;4.82;0.77;;;18.10;37.80;;;;;;5037678;28;20399;-85
2022/05/10 15:57:17;;;;;;;5.03;1.08;;;18.10;37.90;;;;;;5038763;28;20036;-86
2022/05/10 15:59:43;;;;;;;4.40;0.82;;;18.10;38.00;;;;;;5006813;28;20033;-86
2022/05/10 16:02:10;;;;;;;1.58;1.00;;;18.10;37.90;;;;;;5035810;28;20029;-86
2022/05/10 16:04:36;;;;;;;3.42;0.90;;;18.10;37.80;;;;;;5036570;28;20143;-85
2022/05/10 16:07:03;;;;;;;1.90;0.80;;;18.10;38.10;;;;;;5038088;28;20131;-85
2022/05/10 16:09:29;;;;;;;2.50;0.90;;;18.10;38.30;;;;;;5039166;28;20640;-78
2022/05/10 16:11:55;;;;;;;5.53;1.15;;;18.10;38.20;;;;;;5038773;28;20035;-78
2022/05/10 16:14:21;;;;;;;3.67;0.73;;;18.10;38.20;;;;;;5039184;28;20040;-78
2022/05/10 16:16:47;;;;;;;2.65;0.70;;;18.10;38.00;;;;;;5037385;28;20035;-78
2022/05/10 16:19:13;;;;;;;8.55;1.38;;;18.10;37.60;;;;;;5038990;28;20389;-81
2022/05/10 16:21:40;;;;;;;4.03;0.82;;;18.10;37.60;;;;;;5035891;28;20087;-80
2022/05/10 16:24:07;;;;;;;5.85;1.02;;;18.10;37.90;;;;;;5035953;28;20039;-80
2022/05/10 16:32:05;;;;;;;4.13;0.90;;;18.00;38.30;;;;;;5042945;28;20033;-84
2022/05/10 16:34:31;;;;;;;2.22;1.00;;;18.00;38.20;;;;;;5019536;28;20405;-82
2022/05/10 16:36:57;;;;;;;5.70;1.17;;;17.90;38.50;;;;;;5052522;28;20026;-84
2022/05/10 16:39:23;;;;;;;5.20;0.90;;;18.00;38.30;;;;;;5021383;28;20055;-86
2022/05/10 16:41:49;;;;;;;2.53;1.00;;;18.00;38.40;;;;;;5036635;28;20149;-87
2022/05/10 16:44:20;;;;;;;3.92;1.10;;;17.90;38.30;;;;;;5023252;28;20083;-81
2022/05/10 16:46:47;;;;;;;4.68;1.30;;;17.90;38.50;;;;;;5007113;28;20043;-83
2022/05/10 16:49:13;;;;;;;3.40;1.10;;;17.90;38.70;;;;;;5018969;28;20669;-80
2022/05/10 16:51:40;;;;;;;4.78;1.10;;;17.90;38.80;;;;;;5032447;28;20076;-81
2022/05/10 16:54:11;;;;;;;2.10;0.98;;;17.90;38.60;;;;;;5035159;28;20033;-80
2022/05/10 16:56:42;;;;;;;6.38;1.10;;;17.90;38.70;;;;;;5039790;28;20034;-84
2022/05/10 16:59:09;;;;;;;5.85;1.30;;;17.90;38.80;;;;;;5036186;28;20530;-88
2022/05/10 17:01:38;;;;;;;6.88;1.00;;;17.90;38.90;;;;;;5018045;28;20032;-89
2022/05/10 17:04:05;;;;;;;3.65;1.17;;;17.80;38.30;;;;;;5036849;28;20515;-85
2022/05/10 17:06:34;;;;;;;2.30;0.95;;;17.80;38.70;;;;;;5022746;28;20030;-84
2022/05/10 17:09:00;;;;;;;4.90;1.17;;;17.80;39.00;;;;;;5055842;28;20079;-86
2022/05/10 17:11:28;;;;;;;3.63;1.23;;;17.80;38.70;;;;;;5060866;28;20106;-84
2022/05/10 17:13:54;;;;;;;4.10;1.00;;;17.80;39.60;;;;;;5040863;28;20072;-83
2022/05/10 17:16:20;;;;;;;3.17;0.93;;;17.80;40.00;;;;;;5044188;28;20036;-82
2022/05/10 17:18:47;;;;;;;2.85;1.25;;;17.80;40.20;;;;;;5049665;28;20414;-83
2022/05/10 17:21:14;;;;;;;6.43;1.27;;;17.80;40.40;;;;;;5064117;28;20040;-83
2022/05/10 17:23:41;;;;;;;4.15;0.90;;;17.80;40.40;;;;;;5061384;28;20028;-81
2022/05/10 17:26:07;;;;;;;3.45;1.13;;;17.80;40.20;;;;;;5064580;28;20029;-85
2022/05/10 17:28:41;;;;;;;2.33;1.38;;;17.90;40.20;;;;;;5061983;28;20529;-85
2022/05/10 17:31:10;;;;;;;2.15;1.17;;;17.90;40.10;;;;;;5059922;28;20032;-82
2022/05/10 17:33:37;;;;;;;4.95;1.70;;;17.90;40.60;;;;;;5061392;28;20032;-83
2022/05/10 17:36:11;;;;;;;1.35;0.98;;;17.90;40.60;;;;;;5056402;28;20036;-83
2022/05/10 17:38:38;;;;;;;3.53;1.35;;;17.90;40.80;;;;;;5070464;28;20511;-81
2022/05/10 17:41:05;;;;;;;2.67;1.15;;;17.90;40.80;;;;;;5076821;28;20029;-81
2022/05/10 17:43:36;;;;;;;2.08;0.77;;;17.90;40.50;;;;;;5057949;28;20057;-84
2022/05/10 17:46:03;;;;;;;3.55;1.02;;;17.90;40.30;;;;;;5066445;28;20058;-81
2022/05/10 17:48:29;;;;;;;7.60;0.90;;;17.90;40.30;;;;;;5063679;28;20143;-85
2022/05/10 17:51:07;;;;;;;2.42;1.00;;;17.90;40.10;;;;;;5060686;28;20127;-84
2022/05/10 17:53:35;;;;;;;1.45;0.73;;;17.80;40.10;;;;;;5052877;28;20124;-79
2022/05/10 17:56:06;;;;;;;5.72;0.95;;;17.80;40.00;;;;;;5054663;28;20025;-84
2022/05/10 17:58:35;;;;;;;1.75;1.40;;;17.80;40.00;;;;;;5054586;28;20052;-81
2022/05/10 18:01:03;;;;;;;3.92;1.08;;;17.80;39.80;;;;;;5053807;28;20035;-82
2022/05/10 18:03:30;;;;;;;2.05;0.80;;;17.80;39.80;;;;;;5053494;28;20033;-81
2022/05/10 18:05:57;;;;;;;2.25;0.90;;;17.80;39.90;;;;;;5052218;28;20032;-79
2022/05/10 18:08:24;;;;;;;3.92;1.17;;;17.80;40.20;;;;;;5055792;28;20043;-80
2022/05/10 18:10:53;;;;;;;2.70;1.10;;;17.70;40.00;;;;;;5059832;28;20036;-78
2022/05/10 18:13:19;;;;;;;2.63;1.20;;;17.70;40.10;;;;;;5035824;28;20124;-80
2022/05/10 18:15:45;;;;;;;2.20;1.08;;;17.70;40.10;;;;;;5055212;28;20029;-81
2022/05/10 18:18:15;;;;;;;4.72;1.17;;;17.70;40.10;;;;;;5029141;28;20461;-81
2022/05/10 18:20:43;;;;;;;2.95;1.23;;;17.80;40.20;;;;;;5056627;23;20501;-86
2022/05/10 18:23:11;;;;;;;3.08;0.80;;;17.70;40.60;;;;;;5043742;28;20037;-89
2022/05/10 18:25:37;;;;;;;2.25;0.73;;;17.70;40.60;;;;;;5044192;28;20446;-89
2022/05/10 18:28:04;;;;;;;2.30;0.77;;;17.70;40.90;;;;;;5043951;28;20033;-87
2022/05/10 18:30:30;;;;;;;2.35;1.00;;;17.70;40.60;;;;;;5060424;28;20498;-83
2022/05/10 18:33:02;;;;;;;0.98;0.93;;;17.70;40.30;;;;;;5044128;28;20163;-86
2022/05/10 18:35:33;;;;;;;6.15;1.10;;;17.70;40.00;;;;;;5046312;28;20048;-92
2022/05/10 18:38:12;;;;;;;1.60;0.90;;;17.70;40.30;;;;;;5030725;28;20041;-84
2022/05/10 18:41:00;;;;;;;;;;;;;;;;;;;;;
2022/05/10 18:44:18;;;;;;;5.15;1.05;;;17.70;40.10;;;;;;5043992;28;20029;-95
2022/05/10 18:46:50;;;;;;;1.75;1.30;;;17.70;41.00;;;;;;5035924;28;20076;-89
2022/05/10 18:49:36;;;;;;;2.13;0.90;;;17.70;40.20;;;;;;5042550;28;20090;-85
2022/05/10 18:52:39;;;;;;;2.88;1.20;;;17.60;40.30;;;;;;4984469;28;20044;-87
2022/05/10 18:55:48;;;;;;;5.30;1.00;;;17.60;40.30;;;;;;5044003;28;20597;-84
2022/05/10 18:58:33;;;;;;;3.30;1.00;;;17.60;41.80;;;;;;5017582;28;20048;-87
2022/05/10 19:01:02;;;;;;;1.83;1.25;;;17.60;42.10;;;;;;5049359;28;20060;-85
2022/05/10 19:03:52;;;;;;;2.83;1.15;;;17.60;41.50;;;;;;5043541;28;20060;-87
2022/05/10 19:07:48;;;;;;;1.23;0.80;;;17.40;40.70;;;;;;4981180;28;20351;-87
2022/05/10 19:14:31;;;;;;;1.63;1.00;;;17.50;40.80;;;;;;5013796;28;20044;-87
2022/05/10 19:17:53;;;;;;;3.17;1.10;;;17.50;40.90;;;;;;4932415;28;20102;-86
2022/05/10 19:20:20;;;;;;;3.17;0.70;;;17.40;40.70;;;;;;4993303;28;20049;-85
2022/05/10 19:22:47;;;;;;;2.15;0.65;;;17.40;40.80;;;;;;5016490;28;20079;-89
2022/05/10 19:25:16;;;;;;;1.67;1.00;;;17.40;41.00;;;;;;5004873;28;20076;-90
2022/05/10 19:27:42;;;;;;;1.38;0.90;;;17.40;41.60;;;;;;5022459;28;20042;-91
2022/05/10 19:30:10;;;;;;;2.20;1.10;;;17.50;42.70;;;;;;5017618;28;20079;-84
2022/05/10 19:32:36;;;;;;;3.00;0.90;;;17.50;43.00;;;;;;5042475;28;20044;-96
2022/05/10 19:35:05;;;;;;;4.53;1.10;;;17.50;42.80;;;;;;5027147;28;20453;-88
2022/05/10 19:37:31;;;;;;;3.63;1.23;;;17.50;42.50;;;;;;5024988;28;20038;-91
2022/05/10 19:39:57;;;;;;;7.28;1.25;;;17.40;42.50;;;;;;5011885;28;20029;-90
2022/05/10 19:42:23;;;;;;;1.40;0.93;;;17.50;42.80;;;;;;4992614;28;20080;-91
2022/05/10 19:44:50;;;;;;;2.05;0.90;;;17.50;42.70;;;;;;5008413;28;20427;-95
2022/05/10 19:47:16;;;;;;;2.30;1.00;;;17.50;42.80;;;;;;5006171;28;20037;-85
2022/05/10 19:49:44;;;;;;;3.53;1.05;;;17.50;43.10;;;;;;5023912;28;20038;-88
2022/05/10 19:52:11;;;;;;;3.95;1.20;;;17.40;43.30;;;;;;5024797;28;20045;-90
2022/05/10 19:54:37;;;;;;;2.25;1.00;;;17.50;43.50;;;;;;5042311;28;20082;-89
2022/05/10 19:57:05;;;;;;;4.95;1.20;;;17.40;43.50;;;;;;5030913;28;20028;-87
2022/05/10 19:59:31;;;;;;;3.33;1.10;;;17.40;43.10;;;;;;5047625;28;20091;-85
2022/05/10 20:07:26;;;;;;;3.40;0.90;;;17.40;43.10;;;;;;5047989;28;20811;-85
2022/05/10 20:09:55;;;;;;;3.95;1.08;;;17.40;42.80;;;;;;5047599;28;20494;-84
2022/05/10 20:12:21;;;;;;;1.00;0.85;;;17.40;42.70;;;;;;5063345;28;20565;-86
2022/05/10 20:14:47;;;;;;;2.70;1.02;;;17.40;42.40;;;;;;5048045;28;20438;-90